sensor_id;sensor_type;location;lat;lon;timestamp;P1;durP1;ratioP1;P2;durP2;ratioP2
5428;SDS011;2737;52.386;9.980;2023-03-24T00:00:23;4.73;;;1.73;;
5428;SDS011;2737;52.386;9.980;2023-03-24T00:02:50;5.30;;;1.90;;
5428;SDS011;2737;52.386;9.980;2023-03-24T00:05:18;3.60;;;1.80;;
5428;SDS011;2737;52.386;9.980;2023-03-24T00:07:47;2.87;;;1.60;;
5428;SDS011;2737;52.386;9.980;2023-03-24T00:10:16;4.20;;;1.83;;
5428;SDS011;2737;52.386;9.980;2023-03-24T00:12:44;4.87;;;2.10;;
5428;SDS011;2737;52.386;9.980;2023-03-24T00:15:14;4.20;;;1.80;;
5428;SDS011;2737;52.386;9.980;2023-03-24T00:17:44;4.57;;;2.33;;
5428;SDS011;2737;52.386;9.980;2023-03-24T00:20:14;3.77;;;1.70;;
5428;SDS011;2737;52.386;9.980;2023-03-24T00:22:43;2.97;;;2.03;;
5428;SDS011;2737;52.386;9.980;2023-03-24T00:25:14;4.03;;;1.90;;
5428;SDS011;2737;52.386;9.980;2023-03-24T00:27:43;3.80;;;2.13;;
5428;SDS011;2737;52.386;9.980;2023-03-24T00:30:13;2.30;;;1.67;;
5428;SDS011;2737;52.386;9.980;2023-03-24T00:32:42;2.83;;;1.73;;
5428;SDS011;2737;52.386;9.980;2023-03-24T00:35:11;4.60;;;2.00;;
5428;SDS011;2737;52.386;9.980;2023-03-24T00:37:40;4.47;;;1.83;;
5428;SDS011;2737;52.386;9.980;2023-03-24T00:40:09;2.03;;;1.40;;
5428;SDS011;2737;52.386;9.980;2023-03-24T00:42:39;2.73;;;2.10;;
5428;SDS011;2737;52.386;9.980;2023-03-24T00:45:11;5.10;;;1.97;;
5428;SDS011;2737;52.386;9.980;2023-03-24T00:47:39;5.97;;;2.10;;
5428;SDS011;2737;52.386;9.980;2023-03-24T00:50:10;3.37;;;1.90;;
5428;SDS011;2737;52.386;9.980;2023-03-24T00:52:39;4.47;;;2.03;;
5428;SDS011;2737;52.386;9.980;2023-03-24T00:55:08;2.10;;;1.90;;
5428;SDS011;2737;52.386;9.980;2023-03-24T00:57:39;6.83;;;2.63;;
5428;SDS011;2737;52.386;9.980;2023-03-24T01:00:13;6.70;;;2.17;;
5428;SDS011;2737;52.386;9.980;2023-03-24T01:02:44;4.00;;;1.90;;
5428;SDS011;2737;52.386;9.980;2023-03-24T01:05:12;8.40;;;2.27;;
5428;SDS011;2737;52.386;9.980;2023-03-24T01:07:41;2.70;;;1.77;;
5428;SDS011;2737;52.386;9.980;2023-03-24T01:10:10;4.63;;;2.37;;
5428;SDS011;2737;52.386;9.980;2023-03-24T01:12:40;5.93;;;2.70;;
5428;SDS011;2737;52.386;9.980;2023-03-24T01:15:10;4.90;;;2.50;;
5428;SDS011;2737;52.386;9.980;2023-03-24T01:17:40;4.70;;;2.57;;
5428;SDS011;2737;52.386;9.980;2023-03-24T01:20:08;6.63;;;2.63;;
5428;SDS011;2737;52.386;9.980;2023-03-24T01:22:36;3.73;;;2.57;;
5428;SDS011;2737;52.386;9.980;2023-03-24T01:25:05;2.20;;;2.00;;
5428;SDS011;2737;52.386;9.980;2023-03-24T01:27:33;6.77;;;2.17;;
5428;SDS011;2737;52.386;9.980;2023-03-24T01:30:03;2.90;;;1.90;;
5428;SDS011;2737;52.386;9.980;2023-03-24T01:32:31;3.50;;;2.03;;
5428;SDS011;2737;52.386;9.980;2023-03-24T01:34:58;3.10;;;2.20;;
5428;SDS011;2737;52.386;9.980;2023-03-24T01:37:25;5.50;;;2.20;;
5428;SDS011;2737;52.386;9.980;2023-03-24T01:39:52;3.73;;;2.03;;
5428;SDS011;2737;52.386;9.980;2023-03-24T01:42:21;2.67;;;1.80;;
5428;SDS011;2737;52.386;9.980;2023-03-24T01:44:50;7.23;;;2.27;;
5428;SDS011;2737;52.386;9.980;2023-03-24T01:47:24;4.57;;;2.37;;
5428;SDS011;2737;52.386;9.980;2023-03-24T01:49:52;3.60;;;2.27;;
5428;SDS011;2737;52.386;9.980;2023-03-24T01:52:23;3.77;;;2.00;;
5428;SDS011;2737;52.386;9.980;2023-03-24T01:54:53;3.73;;;2.30;;
5428;SDS011;2737;52.386;9.980;2023-03-24T01:57:25;2.37;;;1.87;;
5428;SDS011;2737;52.386;9.980;2023-03-24T01:59:56;8.50;;;2.33;;
5428;SDS011;2737;52.386;9.980;2023-03-24T02:02:30;4.07;;;2.30;;
5428;SDS011;2737;52.386;9.980;2023-03-24T02:05:02;10.73;;;2.20;;
5428;SDS011;2737;52.386;9.980;2023-03-24T02:07:34;4.57;;;1.90;;
5428;SDS011;2737;52.386;9.980;2023-03-24T02:10:06;3.50;;;2.40;;
5428;SDS011;2737;52.386;9.980;2023-03-24T02:12:35;2.43;;;1.73;;
5428;SDS011;2737;52.386;9.980;2023-03-24T02:15:02;2.93;;;1.77;;
5428;SDS011;2737;52.386;9.980;2023-03-24T02:20:29;6.90;;;2.00;;
5428;SDS011;2737;52.386;9.980;2023-03-24T02:32:33;3.63;;;2.07;;
5428;SDS011;2737;52.386;9.980;2023-03-24T02:35:29;1.60;;;1.50;;
5428;SDS011;2737;52.386;9.980;2023-03-24T02:38:26;3.97;;;2.10;;
5428;SDS011;2737;52.386;9.980;2023-03-24T02:41:14;2.67;;;2.00;;
5428;SDS011;2737;52.386;9.980;2023-03-24T02:43:48;2.70;;;1.53;;
5428;SDS011;2737;52.386;9.980;2023-03-24T02:46:23;3.30;;;2.40;;
5428;SDS011;2737;52.386;9.980;2023-03-24T02:48:58;3.33;;;2.00;;
5428;SDS011;2737;52.386;9.980;2023-03-24T02:51:37;2.80;;;1.93;;
5428;SDS011;2737;52.386;9.980;2023-03-24T02:54:12;4.07;;;2.00;;
5428;SDS011;2737;52.386;9.980;2023-03-24T02:56:46;4.57;;;2.13;;
5428;SDS011;2737;52.386;9.980;2023-03-24T02:59:19;6.40;;;1.90;;
5428;SDS011;2737;52.386;9.980;2023-03-24T03:01:52;1.90;;;1.70;;
5428;SDS011;2737;52.386;9.980;2023-03-24T03:04:26;3.67;;;2.27;;
5428;SDS011;2737;52.386;9.980;2023-03-24T03:06:59;2.13;;;1.60;;
5428;SDS011;2737;52.386;9.980;2023-03-24T03:09:30;3.33;;;1.87;;
5428;SDS011;2737;52.386;9.980;2023-03-24T03:12:01;4.97;;;2.50;;
5428;SDS011;2737;52.386;9.980;2023-03-24T03:14:31;5.60;;;2.23;;
5428;SDS011;2737;52.386;9.980;2023-03-24T03:17:04;2.73;;;1.70;;
5428;SDS011;2737;52.386;9.980;2023-03-24T03:19:36;4.30;;;1.97;;
5428;SDS011;2737;52.386;9.980;2023-03-24T03:22:07;2.93;;;1.60;;
5428;SDS011;2737;52.386;9.980;2023-03-24T03:24:40;3.73;;;1.97;;
5428;SDS011;2737;52.386;9.980;2023-03-24T03:27:13;3.87;;;2.43;;
5428;SDS011;2737;52.386;9.980;2023-03-24T03:29:43;4.43;;;2.30;;
5428;SDS011;2737;52.386;9.980;2023-03-24T03:32:16;3.40;;;1.90;;
5428;SDS011;2737;52.386;9.980;2023-03-24T03:34:49;4.77;;;2.10;;
5428;SDS011;2737;52.386;9.980;2023-03-24T03:37:23;3.07;;;2.07;;
5428;SDS011;2737;52.386;9.980;2023-03-24T03:39:53;3.20;;;2.00;;
5428;SDS011;2737;52.386;9.980;2023-03-24T03:42:25;3.07;;;2.07;;
5428;SDS011;2737;52.386;9.980;2023-03-24T03:44:52;2.00;;;1.80;;
5428;SDS011;2737;52.386;9.980;2023-03-24T03:47:20;2.93;;;1.87;;
5428;SDS011;2737;52.386;9.980;2023-03-24T03:49:47;2.60;;;1.70;;
5428;SDS011;2737;52.386;9.980;2023-03-24T03:52:15;2.30;;;1.77;;
5428;SDS011;2737;52.386;9.980;2023-03-24T03:54:44;1.60;;;1.47;;
5428;SDS011;2737;52.386;9.980;2023-03-24T03:57:11;6.63;;;2.07;;
5428;SDS011;2737;52.386;9.980;2023-03-24T03:59:41;4.20;;;2.20;;
5428;SDS011;2737;52.386;9.980;2023-03-24T04:02:12;1.97;;;1.77;;
5428;SDS011;2737;52.386;9.980;2023-03-24T04:04:54;3.07;;;1.97;;
5428;SDS011;2737;52.386;9.980;2023-03-24T04:07:31;4.50;;;2.20;;
5428;SDS011;2737;52.386;9.980;2023-03-24T04:10:06;3.10;;;1.73;;
5428;SDS011;2737;52.386;9.980;2023-03-24T04:15:34;3.60;;;2.30;;
5428;SDS011;2737;52.386;9.980;2023-03-24T04:18:09;2.47;;;2.10;;
5428;SDS011;2737;52.386;9.980;2023-03-24T04:21:01;2.90;;;2.17;;
5428;SDS011;2737;52.386;9.980;2023-03-24T04:23:40;3.00;;;2.10;;
5428;SDS011;2737;52.386;9.980;2023-03-24T04:26:15;2.90;;;2.37;;
5428;SDS011;2737;52.386;9.980;2023-03-24T04:28:53;3.73;;;2.53;;
5428;SDS011;2737;52.386;9.980;2023-03-24T04:31:36;3.90;;;2.43;;
5428;SDS011;2737;52.386;9.980;2023-03-24T04:34:09;5.67;;;2.40;;
5428;SDS011;2737;52.386;9.980;2023-03-24T04:36:45;3.80;;;2.77;;
5428;SDS011;2737;52.386;9.980;2023-03-24T04:39:19;4.60;;;2.80;;
5428;SDS011;2737;52.386;9.980;2023-03-24T04:41:52;3.30;;;2.60;;
5428;SDS011;2737;52.386;9.980;2023-03-24T04:44:20;6.70;;;2.53;;
5428;SDS011;2737;52.386;9.980;2023-03-24T04:46:50;4.33;;;2.67;;
5428;SDS011;2737;52.386;9.980;2023-03-24T04:49:20;4.27;;;3.13;;
5428;SDS011;2737;52.386;9.980;2023-03-24T04:51:49;4.13;;;3.30;;
5428;SDS011;2737;52.386;9.980;2023-03-24T04:54:17;5.33;;;4.47;;
5428;SDS011;2737;52.386;9.980;2023-03-24T04:56:44;3.20;;;2.90;;
5428;SDS011;2737;52.386;9.980;2023-03-24T04:59:14;5.67;;;3.60;;
5428;SDS011;2737;52.386;9.980;2023-03-24T05:01:41;4.20;;;3.67;;
5428;SDS011;2737;52.386;9.980;2023-03-24T05:04:15;4.80;;;3.90;;
5428;SDS011;2737;52.386;9.980;2023-03-24T05:06:42;5.17;;;4.07;;
5428;SDS011;2737;52.386;9.980;2023-03-24T05:09:10;4.83;;;3.50;;
5428;SDS011;2737;52.386;9.980;2023-03-24T05:11:39;6.50;;;3.20;;
5428;SDS011;2737;52.386;9.980;2023-03-24T05:14:06;3.30;;;2.90;;
5428;SDS011;2737;52.386;9.980;2023-03-24T05:16:33;5.53;;;3.43;;
5428;SDS011;2737;52.386;9.980;2023-03-24T05:19:00;4.20;;;3.43;;
5428;SDS011;2737;52.386;9.980;2023-03-24T05:21:29;3.50;;;3.17;;
5428;SDS011;2737;52.386;9.980;2023-03-24T05:23:56;4.83;;;3.43;;
5428;SDS011;2737;52.386;9.980;2023-03-24T05:26:23;6.50;;;3.60;;
5428;SDS011;2737;52.386;9.980;2023-03-24T05:28:51;10.53;;;3.37;;
5428;SDS011;2737;52.386;9.980;2023-03-24T05:31:19;4.97;;;3.53;;
5428;SDS011;2737;52.386;9.980;2023-03-24T05:33:45;4.97;;;3.50;;
5428;SDS011;2737;52.386;9.980;2023-03-24T05:36:13;7.57;;;3.90;;
5428;SDS011;2737;52.386;9.980;2023-03-24T05:38:42;4.87;;;3.90;;
5428;SDS011;2737;52.386;9.980;2023-03-24T05:41:09;4.60;;;3.47;;
5428;SDS011;2737;52.386;9.980;2023-03-24T05:43:36;4.80;;;3.23;;
5428;SDS011;2737;52.386;9.980;2023-03-24T05:46:04;6.00;;;3.40;;
5428;SDS011;2737;52.386;9.980;2023-03-24T05:48:31;4.30;;;3.50;;
5428;SDS011;2737;52.386;9.980;2023-03-24T05:50:58;4.80;;;3.50;;
5428;SDS011;2737;52.386;9.980;2023-03-24T05:53:25;3.30;;;3.00;;
5428;SDS011;2737;52.386;9.980;2023-03-24T05:55:53;6.83;;;3.83;;
5428;SDS011;2737;52.386;9.980;2023-03-24T05:58:22;9.37;;;3.60;;
5428;SDS011;2737;52.386;9.980;2023-03-24T06:00:49;3.60;;;3.03;;
5428;SDS011;2737;52.386;9.980;2023-03-24T06:03:18;6.20;;;3.40;;
5428;SDS011;2737;52.386;9.980;2023-03-24T06:05:45;4.03;;;3.27;;
5428;SDS011;2737;52.386;9.980;2023-03-24T06:08:13;5.47;;;3.30;;
5428;SDS011;2737;52.386;9.980;2023-03-24T06:10:41;5.03;;;2.70;;
5428;SDS011;2737;52.386;9.980;2023-03-24T06:13:09;3.83;;;3.30;;
5428;SDS011;2737;52.386;9.980;2023-03-24T06:15:36;5.10;;;3.30;;
5428;SDS011;2737;52.386;9.980;2023-03-24T06:18:06;3.97;;;2.83;;
5428;SDS011;2737;52.386;9.980;2023-03-24T06:20:33;5.27;;;3.17;;
5428;SDS011;2737;52.386;9.980;2023-03-24T06:23:01;4.60;;;3.30;;
5428;SDS011;2737;52.386;9.980;2023-03-24T06:25:28;3.00;;;2.53;;
5428;SDS011;2737;52.386;9.980;2023-03-24T06:27:55;5.60;;;3.20;;
5428;SDS011;2737;52.386;9.980;2023-03-24T06:30:29;4.80;;;3.00;;
5428;SDS011;2737;52.386;9.980;2023-03-24T06:32:56;5.03;;;3.30;;
5428;SDS011;2737;52.386;9.980;2023-03-24T06:35:23;7.47;;;3.00;;
5428;SDS011;2737;52.386;9.980;2023-03-24T06:37:50;4.30;;;2.97;;
5428;SDS011;2737;52.386;9.980;2023-03-24T06:40:17;4.90;;;3.80;;
5428;SDS011;2737;52.386;9.980;2023-03-24T06:42:44;4.03;;;3.13;;
5428;SDS011;2737;52.386;9.980;2023-03-24T06:45:13;4.90;;;3.70;;
5428;SDS011;2737;52.386;9.980;2023-03-24T06:47:42;4.50;;;3.70;;
5428;SDS011;2737;52.386;9.980;2023-03-24T06:50:09;5.20;;;3.40;;
5428;SDS011;2737;52.386;9.980;2023-03-24T06:52:37;4.70;;;3.60;;
5428;SDS011;2737;52.386;9.980;2023-03-24T06:55:04;9.20;;;3.60;;
5428;SDS011;2737;52.386;9.980;2023-03-24T06:57:32;4.47;;;3.80;;
5428;SDS011;2737;52.386;9.980;2023-03-24T06:59:59;4.10;;;3.70;;
5428;SDS011;2737;52.386;9.980;2023-03-24T07:02:29;5.43;;;4.43;;
5428;SDS011;2737;52.386;9.980;2023-03-24T07:05:01;7.17;;;4.80;;
5428;SDS011;2737;52.386;9.980;2023-03-24T07:07:30;5.63;;;3.77;;
5428;SDS011;2737;52.386;9.980;2023-03-24T07:09:58;4.80;;;3.80;;
5428;SDS011;2737;52.386;9.980;2023-03-24T07:12:25;6.03;;;4.43;;
5428;SDS011;2737;52.386;9.980;2023-03-24T07:14:52;3.13;;;2.27;;
5428;SDS011;2737;52.386;9.980;2023-03-24T07:17:19;3.50;;;2.10;;
5428;SDS011;2737;52.386;9.980;2023-03-24T07:19:46;6.73;;;2.27;;
5428;SDS011;2737;52.386;9.980;2023-03-24T07:22:15;3.87;;;2.27;;
5428;SDS011;2737;52.386;9.980;2023-03-24T07:24:42;2.70;;;2.33;;
5428;SDS011;2737;52.386;9.980;2023-03-24T07:27:09;4.60;;;2.20;;
5428;SDS011;2737;52.386;9.980;2023-03-24T07:29:36;3.30;;;2.53;;
5428;SDS011;2737;52.386;9.980;2023-03-24T07:32:03;2.03;;;1.77;;
5428;SDS011;2737;52.386;9.980;2023-03-24T07:34:32;1.90;;;1.70;;
5428;SDS011;2737;52.386;9.980;2023-03-24T07:37:00;1.77;;;1.53;;
5428;SDS011;2737;52.386;9.980;2023-03-24T07:39:28;1.63;;;1.40;;
5428;SDS011;2737;52.386;9.980;2023-03-24T07:41:57;6.53;;;1.80;;
5428;SDS011;2737;52.386;9.980;2023-03-24T07:44:24;3.00;;;1.80;;
5428;SDS011;2737;52.386;9.980;2023-03-24T07:46:51;5.60;;;1.37;;
5428;SDS011;2737;52.386;9.980;2023-03-24T07:49:18;2.73;;;1.50;;
5428;SDS011;2737;52.386;9.980;2023-03-24T07:51:45;9.43;;;1.50;;
5428;SDS011;2737;52.386;9.980;2023-03-24T07:54:12;1.97;;;1.30;;
5428;SDS011;2737;52.386;9.980;2023-03-24T07:56:41;1.63;;;1.27;;
5428;SDS011;2737;52.386;9.980;2023-03-24T07:59:08;2.03;;;1.37;;
5428;SDS011;2737;52.386;9.980;2023-03-24T08:01:35;4.10;;;1.50;;
5428;SDS011;2737;52.386;9.980;2023-03-24T08:04:02;1.87;;;1.33;;
5428;SDS011;2737;52.386;9.980;2023-03-24T08:06:30;1.70;;;1.13;;
5428;SDS011;2737;52.386;9.980;2023-03-24T08:08:57;2.37;;;1.50;;
5428;SDS011;2737;52.386;9.980;2023-03-24T08:11:24;1.70;;;1.60;;
5428;SDS011;2737;52.386;9.980;2023-03-24T08:13:52;1.10;;;0.90;;
5428;SDS011;2737;52.386;9.980;2023-03-24T08:16:19;5.10;;;1.30;;
5428;SDS011;2737;52.386;9.980;2023-03-24T08:18:46;3.37;;;1.10;;
5428;SDS011;2737;52.386;9.980;2023-03-24T08:21:14;2.77;;;1.10;;
5428;SDS011;2737;52.386;9.980;2023-03-24T08:23:42;2.60;;;1.00;;
5428;SDS011;2737;52.386;9.980;2023-03-24T08:26:09;2.70;;;1.10;;
5428;SDS011;2737;52.386;9.980;2023-03-24T08:28:36;3.03;;;1.00;;
5428;SDS011;2737;52.386;9.980;2023-03-24T08:31:05;3.83;;;1.20;;
5428;SDS011;2737;52.386;9.980;2023-03-24T08:33:32;2.07;;;1.17;;
5428;SDS011;2737;52.386;9.980;2023-03-24T08:35:59;2.53;;;1.00;;
5428;SDS011;2737;52.386;9.980;2023-03-24T08:38:26;1.70;;;1.20;;
5428;SDS011;2737;52.386;9.980;2023-03-24T08:40:56;6.90;;;1.37;;
5428;SDS011;2737;52.386;9.980;2023-03-24T08:43:26;3.20;;;1.40;;
5428;SDS011;2737;52.386;9.980;2023-03-24T08:45:54;4.20;;;1.10;;
5428;SDS011;2737;52.386;9.980;2023-03-24T08:48:23;4.60;;;1.37;;
5428;SDS011;2737;52.386;9.980;2023-03-24T08:50:50;3.03;;;1.30;;
5428;SDS011;2737;52.386;9.980;2023-03-24T08:53:17;2.77;;;1.23;;
5428;SDS011;2737;52.386;9.980;2023-03-24T08:55:45;4.73;;;2.23;;
5428;SDS011;2737;52.386;9.980;2023-03-24T08:58:13;1.90;;;0.93;;
5428;SDS011;2737;52.386;9.980;2023-03-24T09:00:42;4.57;;;1.10;;
5428;SDS011;2737;52.386;9.980;2023-03-24T09:03:11;3.20;;;1.10;;
5428;SDS011;2737;52.386;9.980;2023-03-24T09:05:43;10.77;;;1.20;;
5428;SDS011;2737;52.386;9.980;2023-03-24T09:08:11;3.17;;;1.27;;
5428;SDS011;2737;52.386;9.980;2023-03-24T09:10:40;5.63;;;1.20;;
5428;SDS011;2737;52.386;9.980;2023-03-24T09:13:10;6.67;;;1.13;;
5428;SDS011;2737;52.386;9.980;2023-03-24T09:15:38;3.20;;;1.10;;
5428;SDS011;2737;52.386;9.980;2023-03-24T09:18:05;4.03;;;1.20;;
5428;SDS011;2737;52.386;9.980;2023-03-24T09:20:32;17.03;;;1.63;;
5428;SDS011;2737;52.386;9.980;2023-03-24T09:23:01;6.70;;;2.70;;
5428;SDS011;2737;52.386;9.980;2023-03-24T09:25:28;2.57;;;1.23;;
5428;SDS011;2737;52.386;9.980;2023-03-24T09:27:55;5.57;;;1.13;;
5428;SDS011;2737;52.386;9.980;2023-03-24T09:30:22;3.73;;;1.13;;
5428;SDS011;2737;52.386;9.980;2023-03-24T09:32:49;4.63;;;1.37;;
5428;SDS011;2737;52.386;9.980;2023-03-24T09:35:16;4.33;;;1.10;;
5428;SDS011;2737;52.386;9.980;2023-03-24T09:37:43;8.20;;;1.60;;
5428;SDS011;2737;52.386;9.980;2023-03-24T09:40:15;4.77;;;1.30;;
5428;SDS011;2737;52.386;9.980;2023-03-24T09:42:47;4.97;;;1.17;;
5428;SDS011;2737;52.386;9.980;2023-03-24T09:45:20;6.13;;;1.27;;
5428;SDS011;2737;52.386;9.980;2023-03-24T09:47:49;3.93;;;1.43;;
5428;SDS011;2737;52.386;9.980;2023-03-24T09:50:22;5.00;;;1.20;;
5428;SDS011;2737;52.386;9.980;2023-03-24T09:52:51;5.20;;;1.40;;
5428;SDS011;2737;52.386;9.980;2023-03-24T09:55:24;9.63;;;2.00;;
5428;SDS011;2737;52.386;9.980;2023-03-24T09:57:55;8.47;;;2.60;;
5428;SDS011;2737;52.386;9.980;2023-03-24T10:00:27;8.47;;;1.87;;
5428;SDS011;2737;52.386;9.980;2023-03-24T10:02:58;4.97;;;1.60;;
5428;SDS011;2737;52.386;9.980;2023-03-24T10:05:32;8.53;;;2.00;;
5428;SDS011;2737;52.386;9.980;2023-03-24T10:08:04;8.70;;;1.70;;
5428;SDS011;2737;52.386;9.980;2023-03-24T10:10:43;9.00;;;2.00;;
5428;SDS011;2737;52.386;9.980;2023-03-24T10:13:20;9.03;;;1.90;;
5428;SDS011;2737;52.386;9.980;2023-03-24T10:15:54;7.43;;;1.70;;
5428;SDS011;2737;52.386;9.980;2023-03-24T10:18:32;9.93;;;2.40;;
5428;SDS011;2737;52.386;9.980;2023-03-24T10:21:06;7.67;;;2.33;;
5428;SDS011;2737;52.386;9.980;2023-03-24T10:23:40;3.43;;;1.80;;
5428;SDS011;2737;52.386;9.980;2023-03-24T10:26:20;3.53;;;1.40;;
5428;SDS011;2737;52.386;9.980;2023-03-24T10:28:58;2.80;;;1.30;;
5428;SDS011;2737;52.386;9.980;2023-03-24T10:31:37;7.80;;;2.03;;
5428;SDS011;2737;52.386;9.980;2023-03-24T10:34:07;7.60;;;2.10;;
5428;SDS011;2737;52.386;9.980;2023-03-24T10:36:36;7.43;;;2.10;;
5428;SDS011;2737;52.386;9.980;2023-03-24T10:39:04;6.97;;;2.10;;
5428;SDS011;2737;52.386;9.980;2023-03-24T10:41:36;5.33;;;1.73;;
5428;SDS011;2737;52.386;9.980;2023-03-24T10:44:04;5.60;;;1.70;;
5428;SDS011;2737;52.386;9.980;2023-03-24T10:46:31;6.33;;;1.60;;
5428;SDS011;2737;52.386;9.980;2023-03-24T10:49:06;7.53;;;1.77;;
5428;SDS011;2737;52.386;9.980;2023-03-24T10:51:35;5.33;;;1.77;;
5428;SDS011;2737;52.386;9.980;2023-03-24T10:54:09;7.77;;;2.30;;
5428;SDS011;2737;52.386;9.980;2023-03-24T10:56:39;6.90;;;2.20;;
5428;SDS011;2737;52.386;9.980;2023-03-24T10:59:15;7.40;;;2.13;;
5428;SDS011;2737;52.386;9.980;2023-03-24T11:01:46;8.60;;;2.33;;
5428;SDS011;2737;52.386;9.980;2023-03-24T11:04:14;10.87;;;2.33;;
5428;SDS011;2737;52.386;9.980;2023-03-24T11:06:51;9.53;;;1.97;;
5428;SDS011;2737;52.386;9.980;2023-03-24T11:09:23;11.90;;;1.90;;
5428;SDS011;2737;52.386;9.980;2023-03-24T11:11:51;11.07;;;2.00;;
5428;SDS011;2737;52.386;9.980;2023-03-24T11:14:22;6.20;;;1.93;;
5428;SDS011;2737;52.386;9.980;2023-03-24T11:16:50;7.50;;;2.27;;
5428;SDS011;2737;52.386;9.980;2023-03-24T11:19:19;7.70;;;2.20;;
5428;SDS011;2737;52.386;9.980;2023-03-24T11:21:47;10.27;;;1.90;;
5428;SDS011;2737;52.386;9.980;2023-03-24T11:24:18;6.73;;;1.67;;
5428;SDS011;2737;52.386;9.980;2023-03-24T11:26:46;9.30;;;2.00;;
5428;SDS011;2737;52.386;9.980;2023-03-24T11:29:23;6.47;;;2.10;;
5428;SDS011;2737;52.386;9.980;2023-03-24T11:31:52;8.17;;;2.27;;
5428;SDS011;2737;52.386;9.980;2023-03-24T11:34:21;9.53;;;1.97;;
5428;SDS011;2737;52.386;9.980;2023-03-24T11:36:51;6.77;;;2.00;;
5428;SDS011;2737;52.386;9.980;2023-03-24T11:39:21;6.03;;;1.63;;
5428;SDS011;2737;52.386;9.980;2023-03-24T11:44:45;5.07;;;1.70;;
5428;SDS011;2737;52.386;9.980;2023-03-24T11:47:22;9.50;;;2.20;;
5428;SDS011;2737;52.386;9.980;2023-03-24T11:49:56;6.30;;;2.00;;
5428;SDS011;2737;52.386;9.980;2023-03-24T11:52:33;7.43;;;2.00;;
5428;SDS011;2737;52.386;9.980;2023-03-24T11:55:05;8.97;;;1.97;;
5428;SDS011;2737;52.386;9.980;2023-03-24T11:57:44;5.63;;;1.87;;
5428;SDS011;2737;52.386;9.980;2023-03-24T12:00:17;14.30;;;2.10;;
5428;SDS011;2737;52.386;9.980;2023-03-24T12:02:51;3.10;;;1.70;;
5428;SDS011;2737;52.386;9.980;2023-03-24T12:05:30;5.73;;;1.70;;
5428;SDS011;2737;52.386;9.980;2023-03-24T12:08:06;5.60;;;1.80;;
5428;SDS011;2737;52.386;9.980;2023-03-24T12:10:59;6.10;;;1.77;;
5428;SDS011;2737;52.386;9.980;2023-03-24T12:13:34;5.17;;;1.20;;
5428;SDS011;2737;52.386;9.980;2023-03-24T12:16:14;3.73;;;1.40;;
5428;SDS011;2737;52.386;9.980;2023-03-24T12:18:54;5.03;;;1.77;;
5428;SDS011;2737;52.386;9.980;2023-03-24T12:21:36;3.67;;;1.57;;
5428;SDS011;2737;52.386;9.980;2023-03-24T12:24:17;10.10;;;1.50;;
5428;SDS011;2737;52.386;9.980;2023-03-24T12:26:53;15.40;;;2.63;;
5428;SDS011;2737;52.386;9.980;2023-03-24T12:29:30;3.97;;;1.57;;
5428;SDS011;2737;52.386;9.980;2023-03-24T12:32:15;10.03;;;1.43;;
5428;SDS011;2737;52.386;9.980;2023-03-24T12:35:03;12.53;;;1.53;;
5428;SDS011;2737;52.386;9.980;2023-03-24T12:37:58;6.93;;;1.57;;
5428;SDS011;2737;52.386;9.980;2023-03-24T12:40:46;4.40;;;1.30;;
5428;SDS011;2737;52.386;9.980;2023-03-24T12:43:30;7.33;;;1.50;;
5428;SDS011;2737;52.386;9.980;2023-03-24T12:46:06;7.77;;;1.53;;
5428;SDS011;2737;52.386;9.980;2023-03-24T12:48:49;7.97;;;1.50;;
5428;SDS011;2737;52.386;9.980;2023-03-24T12:51:38;6.30;;;1.73;;
5428;SDS011;2737;52.386;9.980;2023-03-24T12:54:16;4.80;;;1.23;;
5428;SDS011;2737;52.386;9.980;2023-03-24T12:56:52;6.13;;;1.37;;
5428;SDS011;2737;52.386;9.980;2023-03-24T12:59:26;5.40;;;1.40;;
5428;SDS011;2737;52.386;9.980;2023-03-24T13:02:02;5.23;;;1.70;;
5428;SDS011;2737;52.386;9.980;2023-03-24T13:04:38;5.27;;;1.67;;
5428;SDS011;2737;52.386;9.980;2023-03-24T13:07:08;7.43;;;1.50;;
5428;SDS011;2737;52.386;9.980;2023-03-24T13:09:41;6.73;;;1.37;;
5428;SDS011;2737;52.386;9.980;2023-03-24T13:12:12;5.67;;;1.50;;
5428;SDS011;2737;52.386;9.980;2023-03-24T13:14:45;5.17;;;1.83;;
5428;SDS011;2737;52.386;9.980;2023-03-24T13:17:23;6.70;;;1.33;;
5428;SDS011;2737;52.386;9.980;2023-03-24T13:19:55;8.93;;;1.60;;
5428;SDS011;2737;52.386;9.980;2023-03-24T13:22:23;7.13;;;1.33;;
5428;SDS011;2737;52.386;9.980;2023-03-24T13:24:51;5.40;;;1.30;;
5428;SDS011;2737;52.386;9.980;2023-03-24T13:27:21;6.27;;;1.50;;
5428;SDS011;2737;52.386;9.980;2023-03-24T13:32:41;5.43;;;1.57;;
5428;SDS011;2737;52.386;9.980;2023-03-24T13:35:14;10.13;;;1.47;;
5428;SDS011;2737;52.386;9.980;2023-03-24T13:37:51;7.33;;;1.40;;
5428;SDS011;2737;52.386;9.980;2023-03-24T13:40:22;7.03;;;1.33;;
5428;SDS011;2737;52.386;9.980;2023-03-24T13:42:52;8.23;;;1.50;;
5428;SDS011;2737;52.386;9.980;2023-03-24T13:45:33;5.53;;;1.57;;
5428;SDS011;2737;52.386;9.980;2023-03-24T13:48:14;7.43;;;1.70;;
5428;SDS011;2737;52.386;9.980;2023-03-24T13:50:53;4.43;;;1.10;;
5428;SDS011;2737;52.386;9.980;2023-03-24T13:53:29;4.67;;;1.10;;
5428;SDS011;2737;52.386;9.980;2023-03-24T13:56:03;12.50;;;1.73;;
5428;SDS011;2737;52.386;9.980;2023-03-24T14:01:35;5.50;;;1.20;;
5428;SDS011;2737;52.386;9.980;2023-03-24T14:06:56;4.23;;;1.10;;
5428;SDS011;2737;52.386;9.980;2023-03-24T14:09:25;6.47;;;1.40;;
5428;SDS011;2737;52.386;9.980;2023-03-24T14:12:06;2.90;;;1.20;;
5428;SDS011;2737;52.386;9.980;2023-03-24T14:17:45;5.77;;;1.63;;
5428;SDS011;2737;52.386;9.980;2023-03-24T14:20:24;3.33;;;1.30;;
5428;SDS011;2737;52.386;9.980;2023-03-24T14:22:58;9.00;;;2.23;;
5428;SDS011;2737;52.386;9.980;2023-03-24T14:25:28;7.80;;;2.17;;
5428;SDS011;2737;52.386;9.980;2023-03-24T14:31:00;10.10;;;4.50;;
5428;SDS011;2737;52.386;9.980;2023-03-24T14:33:37;6.70;;;2.43;;
5428;SDS011;2737;52.386;9.980;2023-03-24T14:36:07;6.27;;;1.60;;
5428;SDS011;2737;52.386;9.980;2023-03-24T14:38:39;6.90;;;1.60;;
5428;SDS011;2737;52.386;9.980;2023-03-24T14:41:10;8.57;;;2.17;;
5428;SDS011;2737;52.386;9.980;2023-03-24T14:43:53;7.77;;;1.80;;
5428;SDS011;2737;52.386;9.980;2023-03-24T14:46:32;5.57;;;1.57;;
5428;SDS011;2737;52.386;9.980;2023-03-24T14:49:18;4.37;;;1.37;;
5428;SDS011;2737;52.386;9.980;2023-03-24T14:51:53;5.43;;;1.60;;
5428;SDS011;2737;52.386;9.980;2023-03-24T14:54:26;3.57;;;1.30;;
5428;SDS011;2737;52.386;9.980;2023-03-24T14:56:57;2.70;;;1.50;;
5428;SDS011;2737;52.386;9.980;2023-03-24T14:59:32;6.70;;;1.67;;
5428;SDS011;2737;52.386;9.980;2023-03-24T15:02:10;4.63;;;1.40;;
5428;SDS011;2737;52.386;9.980;2023-03-24T15:07:43;8.07;;;1.40;;
5428;SDS011;2737;52.386;9.980;2023-03-24T15:10:13;3.93;;;1.50;;
5428;SDS011;2737;52.386;9.980;2023-03-24T15:12:42;5.00;;;1.43;;
5428;SDS011;2737;52.386;9.980;2023-03-24T15:15:13;8.33;;;1.87;;
5428;SDS011;2737;52.386;9.980;2023-03-24T15:17:42;5.83;;;1.40;;
5428;SDS011;2737;52.386;9.980;2023-03-24T15:20:19;14.00;;;2.00;;
5428;SDS011;2737;52.386;9.980;2023-03-24T15:22:49;4.60;;;1.33;;
5428;SDS011;2737;52.386;9.980;2023-03-24T15:25:23;5.50;;;1.00;;
5428;SDS011;2737;52.386;9.980;2023-03-24T15:27:51;2.90;;;1.07;;
5428;SDS011;2737;52.386;9.980;2023-03-24T15:30:19;3.70;;;1.07;;
5428;SDS011;2737;52.386;9.980;2023-03-24T15:32:47;4.77;;;1.50;;
5428;SDS011;2737;52.386;9.980;2023-03-24T15:35:15;3.20;;;1.30;;
5428;SDS011;2737;52.386;9.980;2023-03-24T15:37:44;2.73;;;1.27;;
5428;SDS011;2737;52.386;9.980;2023-03-24T15:40:31;3.63;;;1.60;;
5428;SDS011;2737;52.386;9.980;2023-03-24T15:43:05;2.40;;;1.50;;
5428;SDS011;2737;52.386;9.980;2023-03-24T15:45:43;4.90;;;1.60;;
5428;SDS011;2737;52.386;9.980;2023-03-24T15:48:12;9.17;;;1.83;;
5428;SDS011;2737;52.386;9.980;2023-03-24T15:50:53;4.53;;;1.57;;
5428;SDS011;2737;52.386;9.980;2023-03-24T15:53:24;2.43;;;1.13;;
5428;SDS011;2737;52.386;9.980;2023-03-24T15:56:00;10.07;;;1.80;;
5428;SDS011;2737;52.386;9.980;2023-03-24T15:58:29;3.63;;;1.63;;
5428;SDS011;2737;52.386;9.980;2023-03-24T16:00:57;3.40;;;1.50;;
5428;SDS011;2737;52.386;9.980;2023-03-24T16:03:26;2.60;;;1.20;;
5428;SDS011;2737;52.386;9.980;2023-03-24T16:05:57;6.27;;;1.40;;
5428;SDS011;2737;52.386;9.980;2023-03-24T16:08:30;5.10;;;1.80;;
5428;SDS011;2737;52.386;9.980;2023-03-24T16:11:03;8.33;;;2.47;;
5428;SDS011;2737;52.386;9.980;2023-03-24T16:13:35;7.93;;;1.70;;
5428;SDS011;2737;52.386;9.980;2023-03-24T16:16:06;9.03;;;1.40;;